createdAt,value
2023-03-22T00:01:55.957Z,4.60
2023-03-22T00:05:02.601Z,4.63
2023-03-22T00:08:09.537Z,3.57
2023-03-22T00:11:15.746Z,5.83
2023-03-22T00:14:22.270Z,7.00
2023-03-22T00:17:30.706Z,6.53
2023-03-22T00:20:39.558Z,6.87
2023-03-22T00:23:46.236Z,6.43
2023-03-22T00:26:52.669Z,7.60
2023-03-22T00:29:59.182Z,6.57
2023-03-22T00:33:07.002Z,7.23
2023-03-22T00:36:14.261Z,6.23
2023-03-22T00:39:20.327Z,6.70
2023-03-22T00:42:26.994Z,7.40
2023-03-22T00:45:33.048Z,5.90
2023-03-22T00:48:40.545Z,5.13
2023-03-22T00:51:46.678Z,4.87
2023-03-22T00:54:53.179Z,5.23
2023-03-22T00:57:59.509Z,5.20
2023-03-22T01:01:07.514Z,4.77
2023-03-22T01:04:18.315Z,3.90
2023-03-22T01:07:24.663Z,11.23
2023-03-22T01:10:31.282Z,6.37
2023-03-22T01:13:38.648Z,4.97
2023-03-22T01:16:45.131Z,5.07
2023-03-22T01:19:53.046Z,4.73
2023-03-22T01:22:59.605Z,5.50
2023-03-22T01:26:07.010Z,5.27
2023-03-22T01:29:14.158Z,5.57
2023-03-22T01:32:20.639Z,5.47
2023-03-22T01:35:28.648Z,5.33
2023-03-22T01:38:35.060Z,4.90
2023-03-22T01:41:41.658Z,5.03
2023-03-22T01:45:32.693Z,4.77
2023-03-22T01:48:42.245Z,6.37
2023-03-22T01:51:52.687Z,6.30
2023-03-22T01:54:59.235Z,6.30
2023-03-22T01:58:06.470Z,6.17
2023-03-22T02:01:13.543Z,4.83
2023-03-22T02:04:23.495Z,5.23
2023-03-22T02:07:31.916Z,6.80
2023-03-22T02:10:38.933Z,5.93
2023-03-22T02:14:03.913Z,6.37
2023-03-22T02:17:26.213Z,5.70
2023-03-22T02:21:10.179Z,6.67
2023-03-22T02:24:50.659Z,6.93
2023-03-22T02:28:24.628Z,6.53
2023-03-22T02:31:46.590Z,6.53
2023-03-22T02:35:31.491Z,6.03
2023-03-22T02:39:06.872Z,5.20
2023-03-22T02:42:26.706Z,4.80
2023-03-22T02:45:36.086Z,6.23
2023-03-22T02:48:48.445Z,5.40
2023-03-22T02:52:02.323Z,4.33
2023-03-22T02:55:15.039Z,4.97
2023-03-22T02:58:26.658Z,6.60
2023-03-22T03:01:37.334Z,6.20
2023-03-22T03:04:48.310Z,5.57
2023-03-22T03:07:58.785Z,6.17
2023-03-22T03:11:06.890Z,6.07
2023-03-22T03:14:21.981Z,5.90
2023-03-22T03:17:43.048Z,5.30
2023-03-22T03:21:02.518Z,5.37
2023-03-22T03:24:19.830Z,4.60
2023-03-22T03:27:34.053Z,5.63
2023-03-22T03:30:48.198Z,4.60
2023-03-22T03:34:05.088Z,4.33
2023-03-22T03:37:15.002Z,5.60
2023-03-22T03:40:25.587Z,4.97
2023-03-22T03:43:35.641Z,3.80
2023-03-22T03:46:43.392Z,3.80
2023-03-22T03:49:49.554Z,5.37
2023-03-22T03:52:57.185Z,4.80
2023-03-22T03:56:03.732Z,4.37
2023-03-22T03:59:11.407Z,4.80
2023-03-22T04:02:17.813Z,6.87
2023-03-22T04:05:24.465Z,6.33
2023-03-22T04:08:30.916Z,7.47
2023-03-22T04:11:37.298Z,9.33
2023-03-22T04:14:45.001Z,9.20
2023-03-22T04:17:51.729Z,8.30
2023-03-22T04:20:58.248Z,8.90
2023-03-22T04:24:05.783Z,6.27
2023-03-22T04:27:12.043Z,5.47
2023-03-22T04:30:20.410Z,13.37
2023-03-22T04:33:26.816Z,15.10
2023-03-22T04:36:36.604Z,18.90
2023-03-22T04:39:43.367Z,13.17
2023-03-22T04:42:49.792Z,10.03
2023-03-22T04:45:58.446Z,11.80
2023-03-22T04:49:05.312Z,20.90
2023-03-22T04:52:12.027Z,18.87
2023-03-22T04:55:18.452Z,9.97
2023-03-22T04:58:25.000Z,8.90
2023-03-22T05:01:35.064Z,12.20
2023-03-22T05:04:41.221Z,13.33
2023-03-22T05:07:47.335Z,11.27
2023-03-22T05:10:53.698Z,9.40
2023-03-22T05:13:59.985Z,8.73
2023-03-22T05:17:07.661Z,7.57
2023-03-22T05:20:14.871Z,8.30
2023-03-22T05:23:21.555Z,7.60
2023-03-22T05:26:28.461Z,7.87
2023-03-22T05:29:44.971Z,11.63
2023-03-22T05:32:52.681Z,15.57
2023-03-22T05:35:59.112Z,13.90
2023-03-22T05:39:05.474Z,11.17
2023-03-22T05:42:11.569Z,9.67
2023-03-22T05:45:18.511Z,10.30
2023-03-22T05:48:26.149Z,14.40
2023-03-22T05:51:32.252Z,15.53
2023-03-22T05:54:38.456Z,10.70
2023-03-22T05:57:46.624Z,21.73
2023-03-22T06:00:52.869Z,20.10
2023-03-22T06:04:00.686Z,19.17
2023-03-22T06:07:06.642Z,16.57
2023-03-22T06:10:15.010Z,23.67
2023-03-22T06:13:21.790Z,22.17
2023-03-22T06:16:28.265Z,24.63
2023-03-22T06:19:36.217Z,22.03
2023-03-22T06:22:43.029Z,18.07
2023-03-22T06:25:49.829Z,13.97
2023-03-22T06:28:56.451Z,7.87
2023-03-22T06:32:03.856Z,16.93
2023-03-22T06:35:11.854Z,13.83
2023-03-22T06:38:18.192Z,8.57
2023-03-22T06:41:24.648Z,18.47
2023-03-22T06:44:31.178Z,18.80
2023-03-22T06:47:37.600Z,11.80
2023-03-22T06:50:46.362Z,13.87
2023-03-22T06:53:53.168Z,12.07
2023-03-22T06:56:59.673Z,8.97
2023-03-22T07:00:07.584Z,9.03
2023-03-22T07:03:13.992Z,9.73
2023-03-22T07:06:21.480Z,14.57
2023-03-22T07:09:28.083Z,53.53
2023-03-22T07:12:34.334Z,16.73
2023-03-22T07:15:41.786Z,13.87
2023-03-22T07:18:48.410Z,10.37
2023-03-22T07:21:56.162Z,8.47
2023-03-22T07:25:02.303Z,12.73
2023-03-22T07:28:08.453Z,11.83
2023-03-22T07:31:15.221Z,20.67
2023-03-22T07:34:21.374Z,30.20
2023-03-22T07:37:28.949Z,22.10
2023-03-22T07:40:35.239Z,15.07
2023-03-22T07:43:53.160Z,15.00
2023-03-22T07:47:01.835Z,10.47
2023-03-22T07:50:09.624Z,11.27
2023-03-22T07:53:17.562Z,11.30
2023-03-22T07:56:24.311Z,14.77
2023-03-22T07:59:31.362Z,22.70
2023-03-22T08:02:38.975Z,22.80
2023-03-22T08:05:45.662Z,21.43
2023-03-22T08:08:53.397Z,23.33
2023-03-22T08:11:59.488Z,22.50
2023-03-22T08:15:06.349Z,26.23
2023-03-22T08:18:12.837Z,25.17
2023-03-22T08:21:19.405Z,18.90
2023-03-22T08:24:27.335Z,13.70
2023-03-22T08:27:33.731Z,17.57
2023-03-22T08:30:40.455Z,18.23
2023-03-22T08:33:47.944Z,18.53
2023-03-22T08:36:54.188Z,16.37
2023-03-22T08:40:01.620Z,12.77
2023-03-22T08:43:08.512Z,18.23
2023-03-22T08:46:14.905Z,9.10
2023-03-22T08:49:21.608Z,7.57
2023-03-22T08:52:27.995Z,4.90
2023-03-22T08:55:36.221Z,8.00
2023-03-22T08:58:46.660Z,8.93
2023-03-22T09:01:53.004Z,9.77
2023-03-22T09:04:59.238Z,8.90
2023-03-22T09:08:06.584Z,6.40
2023-03-22T09:11:16.648Z,7.03
2023-03-22T09:14:23.758Z,6.73
2023-03-22T09:17:30.254Z,4.50
2023-03-22T09:20:36.435Z,5.33
2023-03-22T09:23:43.629Z,4.10
2023-03-22T09:26:51.474Z,4.50
2023-03-22T09:29:58.148Z,5.07
2023-03-22T09:33:04.611Z,5.77
2023-03-22T09:36:12.042Z,3.50
2023-03-22T09:39:18.370Z,5.80
2023-03-22T09:42:38.158Z,3.33
2023-03-22T09:45:49.722Z,3.87
2023-03-22T09:48:57.816Z,3.20
2023-03-22T09:52:13.221Z,3.23
2023-03-22T09:55:22.765Z,2.57
2023-03-22T09:58:34.437Z,3.17
2023-03-22T10:01:45.242Z,5.33
2023-03-22T10:05:01.574Z,3.93
2023-03-22T10:08:22.499Z,3.30
2023-03-22T10:11:40.402Z,5.73
2023-03-22T10:14:52.596Z,3.67
2023-03-22T10:18:02.312Z,3.63
2023-03-22T10:21:10.203Z,3.63
2023-03-22T10:24:21.472Z,3.10
2023-03-22T10:27:30.217Z,3.07
2023-03-22T10:30:42.265Z,3.03
2023-03-22T10:33:56.451Z,2.77
2023-03-22T10:37:06.039Z,2.40
2023-03-22T10:40:18.325Z,2.17
2023-03-22T10:43:29.393Z,2.53
2023-03-22T10:46:40.708Z,2.70
2023-03-22T10:49:53.789Z,2.10
2023-03-22T10:53:05.846Z,2.80
2023-03-22T10:56:15.773Z,4.77
2023-03-22T10:59:45.203Z,2.50
2023-03-22T11:02:59.612Z,3.03
2023-03-22T11:06:09.556Z,35.30
2023-03-22T11:09:19.078Z,7.10
2023-03-22T11:12:25.886Z,4.87
2023-03-22T11:15:34.637Z,3.37
2023-03-22T11:18:43.250Z,4.60
2023-03-22T11:21:49.793Z,2.53
2023-03-22T11:24:57.642Z,3.90
2023-03-22T11:28:10.706Z,2.70
2023-03-22T11:31:19.126Z,2.47
2023-03-22T11:34:29.488Z,6.10
2023-03-22T11:37:41.919Z,5.33
2023-03-22T11:40:55.449Z,5.23
2023-03-22T11:44:05.113Z,4.80
2023-03-22T11:47:14.795Z,5.03
2023-03-22T11:50:34.438Z,4.03
2023-03-22T11:53:43.965Z,4.57
2023-03-22T11:56:51.596Z,5.50
2023-03-22T12:00:07.185Z,3.53
2023-03-22T12:03:17.610Z,4.10
2023-03-22T12:06:29.127Z,2.73
2023-03-22T12:09:41.360Z,3.00
2023-03-22T12:12:52.614Z,4.60
2023-03-22T12:16:03.213Z,3.80
2023-03-22T12:19:21.371Z,7.07
2023-03-22T12:22:32.817Z,14.73
2023-03-22T12:25:40.089Z,10.50
2023-03-22T12:28:53.551Z,6.20
2023-03-22T12:32:04.457Z,6.37
2023-03-22T12:35:18.253Z,6.83
2023-03-22T12:38:36.366Z,5.07
2023-03-22T12:41:48.187Z,4.60
2023-03-22T12:45:05.193Z,4.57
2023-03-22T12:48:18.106Z,4.77
2023-03-22T12:51:24.647Z,4.27
2023-03-22T12:54:32.949Z,4.33
2023-03-22T12:57:39.864Z,5.67
2023-03-22T13:00:51.060Z,4.57
2023-03-22T13:03:59.639Z,4.97
2023-03-22T13:07:17.139Z,4.50
2023-03-22T13:10:43.384Z,3.43
2023-03-22T13:13:49.728Z,3.20
2023-03-22T13:17:01.147Z,3.23
2023-03-22T13:20:27.224Z,3.40
2023-03-22T13:23:33.796Z,3.43
2023-03-22T13:26:47.415Z,3.60
2023-03-22T13:29:54.250Z,3.70
2023-03-22T13:33:04.555Z,4.47
2023-03-22T13:36:25.880Z,3.67
2023-03-22T13:39:34.769Z,4.23
2023-03-22T13:42:43.550Z,3.07
2023-03-22T13:46:12.510Z,3.83
2023-03-22T13:49:45.965Z,3.57
2023-03-22T13:52:58.597Z,5.73
2023-03-22T13:56:07.467Z,4.33
2023-03-22T13:59:20.074Z,4.83
2023-03-22T14:02:30.455Z,4.57
2023-03-22T14:05:38.972Z,3.60
2023-03-22T14:08:48.608Z,3.10
2023-03-22T14:12:01.437Z,5.37
2023-03-22T14:15:16.764Z,5.30
2023-03-22T14:18:27.166Z,5.97
2023-03-22T14:21:38.513Z,6.63
